Yangon, Burma
Current Conditions -  °F | °C
As of 11:30 AM on Monday 22 Dec 2014 (Local Time) from VYYY Reporting Station
Scattered Clouds Scattered Clouds  
Wind Chill: 82°   Ceiling: Unl
Heat Index: 85°   Visibility: 5mi
Dew Point: 68°   Wind: 6mph
Humidity: 62%   Direction: 270°W
Pressure: 29.91"   Gusts: 17mph
Location:  16.79°N, 96.15°E
Report Text: VYYY 220530Z 27005G15KT 8000 R21/2000N SCT120 28/20 Q1013
Loading
Personal Weather Stations






























Interactive Weather Map New forecast layout! Learn more

10-Day Weather Forecast

Advertisements
Track Severe Weather on mobile